Time;durP1;ratioP1;P1;durP2;ratioP2;P2;SDS_P1;SDS_P2;PMS_P1;PMS_P2;Temp;Humidity;BMP_temperature;BMP_pressure;BME280_temperature;BME280_humidity;BME280_pressure;Samples;Min_cycle;Max_cycle;Signal;HPM_P1;HPM_P2
2021/12/30 00:01:16;;;;;;;5.00;2.67;;;11.20;99.90;;;;;;4990781;28;20076;-78
2021/12/30 00:03:43;;;;;;;5.13;2.95;;;11.20;99.90;;;;;;4990500;28;20034;-79
2021/12/30 00:06:09;;;;;;;4.90;2.95;;;11.20;99.90;;;;;;4989643;28;20035;-76
2021/12/30 00:08:35;;;;;;;6.60;2.85;;;11.10;99.90;;;;;;4991042;28;20050;-78
2021/12/30 00:11:02;;;;;;;6.05;2.70;;;11.20;99.90;;;;;;4971880;28;20026;-78
2021/12/30 00:13:28;;;;;;;4.22;2.38;;;11.20;99.90;;;;;;4988314;28;20455;-78
2021/12/30 00:15:54;;;;;;;4.55;2.28;;;11.20;99.90;;;;;;4989608;28;20026;-79
2021/12/30 00:18:21;;;;;;;3.67;2.20;;;11.20;99.90;;;;;;4972712;28;20034;-76
2021/12/30 00:20:47;;;;;;;7.57;2.00;;;11.30;99.90;;;;;;4990297;28;20486;-80
2021/12/30 00:23:12;;;;;;;3.60;2.00;;;11.30;99.90;;;;;;4972329;28;20034;-80
2021/12/30 00:25:41;;;;;;;5.97;2.38;;;11.30;99.90;;;;;;4972384;28;20476;-79
2021/12/30 00:28:20;;;;;;;3.38;2.30;;;11.30;99.90;;;;;;4972481;28;20158;-78
2021/12/30 00:30:46;;;;;;;2.55;1.50;;;11.30;99.90;;;;;;4972805;28;20042;-80
2021/12/30 00:33:12;;;;;;;3.40;1.70;;;11.40;99.90;;;;;;4989296;28;20072;-80
2021/12/30 00:35:39;;;;;;;2.10;1.30;;;11.40;99.90;;;;;;4990010;28;20058;-79
2021/12/30 00:38:05;;;;;;;2.88;1.10;;;11.40;99.90;;;;;;4988106;28;20106;-80
2021/12/30 00:40:34;;;;;;;2.78;1.38;;;11.40;99.90;;;;;;4957207;28;20030;-78
2021/12/30 00:43:00;;;;;;;2.55;1.30;;;11.40;99.90;;;;;;4984749;28;20084;-78
2021/12/30 00:45:28;;;;;;;3.08;1.50;;;11.40;99.90;;;;;;4957434;28;20034;-77
2021/12/30 00:47:57;;;;;;;2.92;1.30;;;11.40;99.90;;;;;;4976740;28;20635;-79
2021/12/30 00:50:27;;;;;;;3.40;1.20;;;11.40;99.90;;;;;;4970470;28;20053;-79
2021/12/30 00:52:57;;;;;;;2.37;0.97;;;11.50;99.90;;;;;;4969357;28;20030;-79
2021/12/30 00:55:26;;;;;;;8.50;1.23;;;11.60;99.90;;;;;;4961763;28;20286;-79
2021/12/30 00:57:55;;;;;;;3.45;0.60;;;11.70;99.90;;;;;;4962860;28;20071;-80
2021/12/30 01:00:24;;;;;;;2.72;0.95;;;11.80;99.90;;;;;;4962364;28;20148;-78
2021/12/30 01:02:53;;;;;;;3.42;0.88;;;11.80;99.90;;;;;;4959996;28;20146;-81
2021/12/30 01:05:22;;;;;;;3.85;0.88;;;11.80;99.90;;;;;;4948943;28;20027;-80
2021/12/30 01:07:50;;;;;;;2.70;0.95;;;11.80;99.90;;;;;;4963158;28;20050;-80
2021/12/30 01:10:23;;;;;;;2.67;1.00;;;11.90;99.90;;;;;;4961244;28;20066;-78
2021/12/30 01:12:54;;;;;;;2.30;1.00;;;11.90;99.90;;;;;;4962848;28;20034;-80
2021/12/30 01:15:34;;;;;;;4.05;1.20;;;11.90;99.90;;;;;;4952221;28;20050;-80
2021/12/30 01:20:50;;;;;;;4.75;1.13;;;11.90;99.90;;;;;;4961915;28;20102;-79
2021/12/30 01:23:17;;;;;;;3.85;0.98;;;11.90;99.90;;;;;;4952471;28;20031;-80
2021/12/30 01:25:46;;;;;;;3.85;1.30;;;11.90;99.90;;;;;;4959165;28;20547;-80
2021/12/30 01:28:15;;;;;;;1.65;1.05;;;11.90;99.90;;;;;;4959403;28;20019;-79
2021/12/30 01:30:43;;;;;;;4.00;1.30;;;12.00;99.90;;;;;;4961625;28;20027;-80
2021/12/30 01:33:11;;;;;;;2.35;1.10;;;12.00;99.90;;;;;;4959636;28;20039;-80
2021/12/30 01:35:37;;;;;;;3.28;1.15;;;11.90;99.90;;;;;;4960560;28;20391;-80
2021/12/30 01:38:05;;;;;;;2.08;1.10;;;11.90;99.90;;;;;;4979783;28;20242;-79
2021/12/30 01:40:32;;;;;;;2.20;1.00;;;11.90;99.90;;;;;;4979055;28;20138;-78
2021/12/30 01:42:58;;;;;;;2.20;0.90;;;11.90;99.90;;;;;;4977475;28;20361;-80
2021/12/30 01:45:24;;;;;;;1.92;0.90;;;11.90;99.90;;;;;;4980250;28;20074;-78
2021/12/30 01:47:52;;;;;;;3.88;1.42;;;11.80;99.90;;;;;;4979873;28;20065;-79
2021/12/30 01:50:19;;;;;;;4.28;1.08;;;11.80;99.90;;;;;;4980163;28;20030;-78
2021/12/30 01:52:45;;;;;;;5.90;1.15;;;11.80;99.90;;;;;;4982387;28;20030;-78
2021/12/30 01:55:13;;;;;;;3.17;1.00;;;11.90;99.90;;;;;;4980209;28;20026;-79
2021/12/30 01:57:39;;;;;;;4.80;1.02;;;11.80;99.90;;;;;;4980535;28;20142;-79
2021/12/30 02:00:08;;;;;;;2.97;1.10;;;11.80;99.90;;;;;;4979418;28;20799;-80
2021/12/30 02:02:33;;;;;;;3.70;1.20;;;11.70;99.90;;;;;;4981647;28;20030;-78
2021/12/30 02:04:59;;;;;;;4.88;1.30;;;11.70;99.90;;;;;;4979664;28;20498;-79
2021/12/30 02:07:25;;;;;;;4.63;1.13;;;11.60;99.90;;;;;;4988132;28;20043;-78
2021/12/30 02:09:53;;;;;;;5.00;1.13;;;11.60;99.90;;;;;;4986049;28;20081;-77
2021/12/30 02:12:19;;;;;;;4.15;0.80;;;11.60;99.90;;;;;;4983581;28;20042;-79
2021/12/30 02:14:44;;;;;;;5.70;1.10;;;11.70;99.90;;;;;;4985449;28;20034;-79
2021/12/30 02:17:10;;;;;;;4.32;1.00;;;11.60;99.90;;;;;;4990044;28;20034;-77
2021/12/30 02:19:36;;;;;;;3.17;1.08;;;11.60;99.90;;;;;;4990093;28;20034;-79
2021/12/30 02:22:02;;;;;;;2.33;1.00;;;11.70;99.90;;;;;;4991023;28;20161;-77
2021/12/30 02:24:28;;;;;;;3.17;1.10;;;11.60;99.90;;;;;;4988025;28;20035;-79
2021/12/30 02:26:54;;;;;;;3.28;1.20;;;11.60;99.90;;;;;;4979789;28;20023;-79
2021/12/30 02:29:19;;;;;;;6.72;1.60;;;11.60;99.90;;;;;;4988629;28;20034;-79
2021/12/30 02:31:45;;;;;;;4.78;1.20;;;11.60;99.90;;;;;;4986005;28;20464;-79
2021/12/30 02:34:12;;;;;;;4.53;1.50;;;11.60;99.90;;;;;;4991333;28;20038;-77
2021/12/30 02:36:39;;;;;;;2.97;1.13;;;11.60;99.90;;;;;;4988671;28;20050;-79
2021/12/30 02:39:11;;;;;;;2.70;1.42;;;11.60;99.90;;;;;;4989474;28;20586;-79
2021/12/30 02:41:38;;;;;;;3.15;1.30;;;11.60;99.90;;;;;;5004019;28;20034;-78
2021/12/30 02:44:06;;;;;;;4.32;1.10;;;11.60;99.90;;;;;;4989037;28;20483;-78
2021/12/30 02:46:32;;;;;;;3.17;1.30;;;11.60;99.90;;;;;;4982216;28;20022;-78
2021/12/30 02:48:59;;;;;;;4.18;1.25;;;11.60;99.90;;;;;;4991220;28;20030;-77
2021/12/30 02:51:26;;;;;;;2.33;1.02;;;11.60;99.90;;;;;;4992028;28;20466;-80
2021/12/30 02:53:52;;;;;;;3.58;1.50;;;11.70;99.90;;;;;;4992419;28;20030;-78
2021/12/30 02:56:22;;;;;;;2.40;1.40;;;11.70;99.90;;;;;;4990556;28;20023;-78
2021/12/30 02:58:49;;;;;;;7.55;1.33;;;11.70;99.90;;;;;;4991677;28;20117;-79
2021/12/30 03:01:18;;;;;;;4.75;1.33;;;11.70;99.90;;;;;;4985323;28;20467;-80
2021/12/30 03:03:45;;;;;;;3.80;1.27;;;11.70;99.90;;;;;;5003641;28;20057;-80
2021/12/30 03:06:13;;;;;;;6.05;1.40;;;11.70;99.90;;;;;;4986374;28;20058;-79
2021/12/30 03:08:39;;;;;;;3.15;1.30;;;11.70;99.90;;;;;;4988669;28;20038;-79
2021/12/30 03:11:06;;;;;;;2.15;1.05;;;11.70;99.90;;;;;;4988204;28;20031;-78
2021/12/30 03:13:32;;;;;;;5.85;1.70;;;11.70;99.90;;;;;;4990984;28;20030;-78
2021/12/30 03:16:00;;;;;;;6.90;1.30;;;11.70;99.90;;;;;;4989433;28;20039;-79
2021/12/30 03:18:26;;;;;;;4.97;1.42;;;11.70;99.90;;;;;;4988118;28;20064;-80
2021/12/30 03:20:52;;;;;;;5.68;1.25;;;11.70;99.90;;;;;;4989024;28;20054;-78
2021/12/30 03:23:18;;;;;;;1.75;0.90;;;11.70;99.90;;;;;;4984579;28;20054;-78
2021/12/30 03:25:44;;;;;;;1.65;1.10;;;11.70;99.90;;;;;;4988470;28;20066;-79
2021/12/30 03:28:09;;;;;;;8.65;1.15;;;11.70;99.90;;;;;;4989953;28;20038;-79
2021/12/30 03:30:35;;;;;;;4.03;1.10;;;11.70;99.90;;;;;;4986961;28;20038;-79
2021/12/30 03:33:01;;;;;;;3.70;1.25;;;11.70;99.90;;;;;;4988276;28;20061;-81
2021/12/30 03:35:27;;;;;;;3.28;1.15;;;11.70;99.90;;;;;;4990287;28;20031;-79
2021/12/30 03:37:52;;;;;;;4.05;1.00;;;11.70;99.90;;;;;;4983590;28;20113;-79
2021/12/30 03:40:18;;;;;;;3.90;1.30;;;11.70;99.90;;;;;;4987976;28;20085;-78
2021/12/30 03:42:44;;;;;;;8.52;1.45;;;11.70;99.90;;;;;;4988912;28;20034;-80
2021/12/30 03:45:12;;;;;;;4.05;1.25;;;11.70;99.90;;;;;;4988534;28;20073;-80
2021/12/30 03:47:42;;;;;;;4.38;1.00;;;11.70;99.90;;;;;;4991126;28;20034;-79
2021/12/30 03:50:19;;;;;;;2.47;0.90;;;11.70;99.90;;;;;;4985838;28;20034;-79
2021/12/30 03:52:46;;;;;;;3.28;0.98;;;11.70;99.90;;;;;;4988227;28;20057;-79
2021/12/30 03:55:12;;;;;;;3.10;1.00;;;11.70;99.90;;;;;;4984983;28;20026;-79
2021/12/30 03:57:38;;;;;;;3.72;1.20;;;11.70;99.90;;;;;;4988172;28;20372;-78
2021/12/30 04:00:05;;;;;;;4.10;0.93;;;11.70;99.90;;;;;;4987195;28;20092;-78
2021/12/30 04:02:31;;;;;;;5.43;1.08;;;11.70;99.90;;;;;;4989766;28;20027;-78
2021/12/30 04:04:56;;;;;;;4.93;1.02;;;11.70;99.90;;;;;;4987676;28;20033;-80
2021/12/30 04:07:22;;;;;;;3.53;1.20;;;11.70;99.90;;;;;;4986268;28;20054;-79
2021/12/30 04:09:48;;;;;;;4.75;0.95;;;11.60;99.90;;;;;;4986100;28;20034;-80
2021/12/30 04:12:13;;;;;;;4.28;0.90;;;11.60;99.90;;;;;;4985339;28;20088;-79
2021/12/30 04:14:40;;;;;;;3.80;1.00;;;11.60;99.90;;;;;;4986613;28;20034;-78
2021/12/30 04:17:05;;;;;;;6.97;1.38;;;11.60;99.90;;;;;;4987562;28;20184;-77
2021/12/30 04:19:31;;;;;;;4.22;1.05;;;11.60;99.90;;;;;;4986356;28;20038;-77
2021/12/30 04:21:58;;;;;;;4.63;1.23;;;11.60;99.90;;;;;;4989571;28;20467;-78
2021/12/30 04:24:24;;;;;;;5.32;1.05;;;11.60;99.90;;;;;;4987064;28;20212;-79
2021/12/30 04:26:51;;;;;;;3.10;0.80;;;11.50;99.90;;;;;;4987663;28;20038;-77
2021/12/30 04:29:18;;;;;;;2.20;0.90;;;11.50;99.90;;;;;;4985832;28;20467;-77
2021/12/30 04:31:44;;;;;;;5.22;1.17;;;11.50;99.90;;;;;;4989677;28;20042;-78
2021/12/30 04:34:10;;;;;;;6.70;1.30;;;11.40;99.90;;;;;;4987451;28;20039;-80
2021/12/30 04:36:36;;;;;;;2.65;1.08;;;11.50;99.90;;;;;;4982644;28;20081;-80
2021/12/30 04:39:02;;;;;;;1.83;0.85;;;11.40;99.90;;;;;;4987005;28;20729;-78
2021/12/30 04:41:28;;;;;;;2.28;1.00;;;11.40;99.90;;;;;;4987516;28;20036;-78
2021/12/30 04:43:54;;;;;;;2.95;0.90;;;11.50;99.90;;;;;;4988072;28;20022;-78
2021/12/30 04:46:19;;;;;;;1.35;0.80;;;11.50;99.90;;;;;;4986399;28;20040;-79
2021/12/30 04:48:45;;;;;;;2.90;0.85;;;11.40;99.90;;;;;;4984014;28;20022;-79
2021/12/30 04:51:11;;;;;;;2.13;0.80;;;11.40;99.90;;;;;;4987104;28;20045;-78
2021/12/30 04:53:36;;;;;;;2.90;0.80;;;11.40;99.90;;;;;;4987552;28;20030;-77
2021/12/30 04:56:03;;;;;;;1.27;0.65;;;11.40;99.90;;;;;;4987874;28;20405;-77
2021/12/30 04:58:28;;;;;;;1.60;0.80;;;11.40;99.90;;;;;;4982465;28;20061;-78
2021/12/30 05:00:55;;;;;;;1.65;0.80;;;11.30;99.90;;;;;;4981599;28;20550;-79
2021/12/30 05:03:21;;;;;;;1.85;0.85;;;11.30;99.90;;;;;;4983913;28;20031;-78
2021/12/30 05:05:50;;;;;;;5.88;1.50;;;11.20;99.90;;;;;;4985961;28;20030;-77
2021/12/30 05:08:19;;;;;;;2.95;0.93;;;11.20;99.90;;;;;;4986878;28;20049;-78
2021/12/30 05:10:46;;;;;;;5.35;1.00;;;11.10;99.90;;;;;;4983421;28;20042;-77
2021/12/30 05:13:12;;;;;;;3.65;0.90;;;11.20;99.90;;;;;;4987217;28;20062;-77
2021/12/30 05:15:39;;;;;;;4.15;1.05;;;11.10;99.90;;;;;;4988110;28;20122;-76
2021/12/30 05:18:07;;;;;;;3.88;0.90;;;11.10;99.90;;;;;;4986769;28;20114;-81
2021/12/30 05:20:33;;;;;;;2.30;0.70;;;11.20;99.90;;;;;;4982799;28;20038;-79
2021/12/30 05:22:59;;;;;;;1.70;0.88;;;11.20;99.90;;;;;;4978969;28;20045;-76
2021/12/30 05:25:25;;;;;;;3.72;1.10;;;11.20;99.90;;;;;;4984164;28;20030;-76
2021/12/30 05:27:51;;;;;;;3.70;0.95;;;11.10;99.90;;;;;;4990685;28;20037;-77
2021/12/30 05:30:18;;;;;;;4.07;1.20;;;11.10;99.90;;;;;;4992898;28;20340;-80
2021/12/30 05:32:49;;;;;;;2.42;1.00;;;11.20;99.90;;;;;;4989090;28;20041;-79
2021/12/30 05:35:15;;;;;;;3.10;1.05;;;11.20;99.90;;;;;;4987996;28;20052;-77
2021/12/30 05:37:42;;;;;;;3.03;1.33;;;11.20;99.90;;;;;;4994937;28;20460;-79
2021/12/30 05:40:12;;;;;;;2.58;1.05;;;11.20;99.90;;;;;;4987273;28;20041;-79
2021/12/30 05:42:38;;;;;;;1.57;0.87;;;11.20;99.90;;;;;;4990328;28;20100;-80
2021/12/30 05:45:04;;;;;;;1.92;1.05;;;11.20;99.90;;;;;;4995376;28;20038;-81
2021/12/30 05:47:30;;;;;;;2.10;1.17;;;11.20;99.90;;;;;;4996825;28;20041;-81
2021/12/30 05:49:56;;;;;;;2.67;1.25;;;11.10;99.90;;;;;;4993859;28;20038;-80
2021/12/30 05:52:22;;;;;;;4.38;1.20;;;11.20;99.90;;;;;;4998431;28;20033;-79
2021/12/30 05:54:48;;;;;;;1.88;1.30;;;11.20;99.90;;;;;;4996021;28;20077;-79
2021/12/30 05:57:13;;;;;;;1.90;1.20;;;11.20;99.90;;;;;;4994046;28;20030;-80
2021/12/30 05:59:39;;;;;;;1.83;1.27;;;11.10;99.90;;;;;;4991965;28;20570;-80
2021/12/30 06:02:05;;;;;;;2.33;1.23;;;11.20;99.90;;;;;;4998440;28;20386;-81
2021/12/30 06:04:31;;;;;;;3.08;1.40;;;11.20;99.90;;;;;;4991655;28;20026;-80
2021/12/30 06:06:57;;;;;;;3.65;1.60;;;11.20;99.90;;;;;;4994567;28;20035;-75
2021/12/30 06:09:25;;;;;;;3.03;1.27;;;11.20;99.90;;;;;;4996953;28;20046;-78
2021/12/30 06:11:51;;;;;;;3.53;1.30;;;11.30;99.90;;;;;;4998614;28;20072;-76
2021/12/30 06:14:16;;;;;;;2.38;1.48;;;11.30;99.90;;;;;;4995629;28;20485;-79
2021/12/30 06:16:42;;;;;;;2.85;1.40;;;11.30;99.90;;;;;;4994163;28;20030;-81
2021/12/30 06:19:08;;;;;;;2.55;1.50;;;11.30;99.90;;;;;;4991510;28;20061;-80
2021/12/30 06:21:33;;;;;;;2.30;1.50;;;11.30;99.90;;;;;;4995372;28;20053;-78
2021/12/30 06:23:59;;;;;;;2.95;1.55;;;11.30;99.90;;;;;;4996020;28;20423;-78
2021/12/30 06:26:25;;;;;;;3.38;1.95;;;11.40;99.90;;;;;;4990550;28;20122;-78
2021/12/30 06:28:50;;;;;;;3.50;1.80;;;11.40;99.90;;;;;;4995851;28;20453;-80
2021/12/30 06:31:16;;;;;;;4.13;2.22;;;11.40;99.90;;;;;;4997657;28;20038;-79
2021/12/30 06:33:42;;;;;;;4.63;2.50;;;11.40;99.90;;;;;;5003408;28;20605;-80
2021/12/30 06:36:08;;;;;;;3.80;2.10;;;11.40;99.90;;;;;;4994278;28;20776;-80
2021/12/30 06:38:34;;;;;;;4.13;2.15;;;11.40;99.90;;;;;;4991252;28;20141;-80
2021/12/30 06:41:00;;;;;;;4.38;2.35;;;11.40;99.90;;;;;;4992393;28;20848;-80
2021/12/30 06:43:26;;;;;;;4.13;2.05;;;11.40;99.90;;;;;;4991451;28;20033;-78
2021/12/30 06:45:52;;;;;;;7.90;2.30;;;11.40;99.90;;;;;;4992383;28;20704;-80
2021/12/30 06:48:18;;;;;;;5.22;2.72;;;11.40;99.90;;;;;;4990817;28;20112;-80
2021/12/30 06:50:52;;;;;;;4.35;2.53;;;11.40;99.90;;;;;;4991957;28;20049;-79
2021/12/30 06:53:24;;;;;;;4.45;2.35;;;11.40;99.90;;;;;;4993010;28;20119;-79
2021/12/30 06:55:52;;;;;;;5.32;1.85;;;11.50;99.90;;;;;;4990179;28;20450;-77
2021/12/30 06:58:18;;;;;;;4.35;1.38;;;11.50;99.90;;;;;;4987432;28;20038;-77
2021/12/30 07:00:44;;;;;;;2.00;1.23;;;11.40;99.90;;;;;;4991389;28;20114;-77
2021/12/30 07:03:10;;;;;;;2.25;1.20;;;11.50;99.90;;;;;;4991485;28;20398;-79
2021/12/30 07:05:36;;;;;;;3.10;1.08;;;11.50;99.90;;;;;;4990927;28;20026;-77
2021/12/30 07:08:02;;;;;;;2.08;0.98;;;11.60;99.90;;;;;;4991885;28;20045;-77
2021/12/30 07:10:28;;;;;;;2.78;0.80;;;11.60;99.90;;;;;;4990405;28;20049;-78
2021/12/30 07:12:54;;;;;;;2.83;1.13;;;11.70;99.90;;;;;;4991295;28;20038;-77
2021/12/30 07:15:20;;;;;;;1.83;1.02;;;11.60;99.90;;;;;;4990347;28;20038;-77
2021/12/30 07:17:46;;;;;;;3.20;1.08;;;11.60;99.90;;;;;;4995501;28;20558;-78
2021/12/30 07:20:13;;;;;;;2.63;1.45;;;11.60;99.90;;;;;;4990782;28;20101;-78
2021/12/30 07:22:39;;;;;;;2.97;1.48;;;11.60;99.90;;;;;;4991336;28;20038;-78
2021/12/30 07:25:05;;;;;;;3.38;1.52;;;11.60;99.90;;;;;;4990814;28;20449;-78
2021/12/30 07:27:31;;;;;;;2.95;1.52;;;11.60;99.90;;;;;;4990146;28;20042;-77
2021/12/30 07:29:59;;;;;;;2.20;1.40;;;11.60;99.90;;;;;;4992145;28;20058;-78
2021/12/30 07:32:27;;;;;;;2.40;1.65;;;11.60;99.90;;;;;;4989692;28;20040;-78
2021/12/30 07:34:53;;;;;;;3.90;2.47;;;11.60;99.90;;;;;;4997141;28;20035;-77
2021/12/30 07:37:19;;;;;;;2.70;1.60;;;11.60;99.90;;;;;;4982727;28;20082;-77
2021/12/30 07:39:46;;;;;;;1.67;1.10;;;11.60;99.90;;;;;;4980303;28;20487;-77
2021/12/30 07:42:13;;;;;;;2.10;1.30;;;11.60;99.90;;;;;;4954331;28;20037;-76
2021/12/30 07:44:39;;;;;;;1.73;0.98;;;11.60;99.90;;;;;;4973075;28;20035;-79
2021/12/30 07:47:08;;;;;;;2.67;1.20;;;11.60;99.90;;;;;;4972186;28;20038;-79
2021/12/30 07:49:36;;;;;;;2.13;1.15;;;11.60;99.90;;;;;;4977203;28;20109;-76
2021/12/30 07:52:03;;;;;;;1.55;0.90;;;11.50;99.90;;;;;;4954619;28;20117;-78
2021/12/30 07:54:29;;;;;;;1.80;1.00;;;11.50;99.90;;;;;;4975092;28;20531;-78
2021/12/30 07:56:55;;;;;;;1.88;1.20;;;11.60;99.90;;;;;;4953626;28;20038;-74
2021/12/30 07:59:21;;;;;;;2.88;1.38;;;11.60;99.90;;;;;;4981783;28;20837;-79
2021/12/30 08:01:46;;;;;;;2.25;1.40;;;11.60;99.90;;;;;;4967752;28;20030;-79
2021/12/30 08:04:12;;;;;;;2.45;1.30;;;11.60;99.90;;;;;;4969173;28;20054;-79
2021/12/30 08:06:38;;;;;;;4.35;1.10;;;11.60;99.90;;;;;;4960541;28;20073;-79
2021/12/30 08:09:03;;;;;;;1.30;0.88;;;11.60;99.90;;;;;;4971547;28;20039;-80
2021/12/30 08:11:29;;;;;;;2.60;0.90;;;11.60;99.90;;;;;;4952234;28;20062;-77
2021/12/30 08:13:55;;;;;;;1.90;0.93;;;11.60;99.90;;;;;;4961026;28;20093;-74
2021/12/30 08:16:20;;;;;;;1.98;1.00;;;11.60;99.90;;;;;;4961004;28;20023;-75
2021/12/30 08:18:46;;;;;;;1.60;1.10;;;11.60;99.90;;;;;;4976573;28;20106;-77
2021/12/30 08:21:12;;;;;;;1.70;1.00;;;11.70;99.90;;;;;;4970775;28;20045;-76
2021/12/30 08:23:37;;;;;;;1.45;0.93;;;11.70;99.90;;;;;;4972683;28;20037;-76
2021/12/30 08:26:04;;;;;;;1.77;1.10;;;11.60;99.90;;;;;;4970885;28;20038;-76
2021/12/30 08:28:30;;;;;;;1.80;1.08;;;11.70;99.90;;;;;;4969854;28;20262;-77
2021/12/30 08:30:56;;;;;;;1.80;1.15;;;11.70;99.90;;;;;;4971048;28;20030;-78
2021/12/30 08:33:22;;;;;;;3.38;1.20;;;11.70;99.90;;;;;;4957050;28;20042;-76
2021/12/30 08:35:48;;;;;;;2.63;1.65;;;11.70;99.90;;;;;;4980021;28;20026;-76
2021/12/30 08:38:14;;;;;;;2.88;1.25;;;11.70;99.90;;;;;;4988965;28;20058;-76
2021/12/30 08:40:40;;;;;;;2.40;1.17;;;11.70;99.90;;;;;;4988973;28;20038;-77
2021/12/30 08:43:06;;;;;;;1.45;0.90;;;11.70;99.90;;;;;;4981629;28;20038;-75
2021/12/30 08:45:33;;;;;;;2.05;1.33;;;11.70;99.90;;;;;;4981759;28;20033;-73
2021/12/30 08:48:00;;;;;;;3.65;1.40;;;11.70;99.90;;;;;;4965920;28;20092;-74
2021/12/30 08:50:26;;;;;;;1.42;1.05;;;11.70;99.90;;;;;;4975476;28;20073;-74
2021/12/30 08:52:51;;;;;;;2.53;1.20;;;11.70;99.90;;;;;;4967931;28;20152;-72
2021/12/30 08:55:18;;;;;;;1.77;1.10;;;11.70;99.90;;;;;;4970803;28;20031;-72
2021/12/30 08:57:44;;;;;;;2.38;1.17;;;11.70;99.90;;;;;;4988565;28;20038;-72
2021/12/30 09:00:15;;;;;;;4.03;1.27;;;11.70;99.90;;;;;;4970660;28;20138;-72
2021/12/30 09:02:42;;;;;;;3.03;1.33;;;11.80;99.90;;;;;;4990400;28;20031;-73
2021/12/30 09:05:09;;;;;;;2.58;1.35;;;11.80;99.90;;;;;;4966878;28;20506;-72
2021/12/30 09:07:34;;;;;;;2.20;1.48;;;11.80;99.90;;;;;;4984900;28;20177;-73
2021/12/30 09:10:00;;;;;;;3.30;1.70;;;11.80;99.90;;;;;;4968632;28;20054;-73
2021/12/30 09:12:26;;;;;;;2.72;1.42;;;11.80;99.90;;;;;;4988883;28;20530;-73
2021/12/30 09:14:52;;;;;;;2.85;1.50;;;11.80;99.90;;;;;;4976481;28;20062;-74
2021/12/30 09:17:18;;;;;;;3.58;1.50;;;11.80;99.90;;;;;;4963329;28;20077;-74
2021/12/30 09:19:43;;;;;;;2.45;1.73;;;11.80;99.90;;;;;;4976522;28;20034;-72
2021/12/30 09:22:09;;;;;;;2.90;1.38;;;11.80;99.90;;;;;;4979956;28;20767;-73
2021/12/30 09:24:35;;;;;;;1.98;1.10;;;11.90;99.90;;;;;;4973288;28;20041;-74
2021/12/30 09:27:04;;;;;;;1.58;1.00;;;11.90;99.90;;;;;;4972864;28;20713;-74
2021/12/30 09:29:29;;;;;;;1.83;1.10;;;11.90;99.90;;;;;;4979566;28;20086;-75
2021/12/30 09:31:57;;;;;;;2.20;0.98;;;12.00;99.90;;;;;;4973119;28;20521;-72
2021/12/30 09:34:22;;;;;;;1.83;1.05;;;12.00;99.90;;;;;;4974222;28;20545;-77
2021/12/30 09:36:48;;;;;;;3.25;1.00;;;12.00;99.90;;;;;;4964324;28;20070;-73
2021/12/30 09:39:15;;;;;;;4.68;1.42;;;12.00;99.90;;;;;;4988083;28;20029;-76
2021/12/30 09:41:44;;;;;;;2.47;1.20;;;12.00;99.90;;;;;;4973846;28;20823;-76
2021/12/30 09:44:12;;;;;;;2.30;1.40;;;12.00;99.90;;;;;;4982537;28;20053;-75
2021/12/30 09:46:38;;;;;;;2.42;1.20;;;12.10;99.90;;;;;;4971943;28;20121;-77
2021/12/30 09:49:08;;;;;;;2.28;1.10;;;12.20;99.90;;;;;;4977607;28;20758;-75
2021/12/30 09:51:35;;;;;;;3.50;1.08;;;12.20;99.90;;;;;;4975404;28;20035;-77
2021/12/30 09:54:01;;;;;;;2.13;1.10;;;12.20;99.90;;;;;;4974267;28;20081;-75
2021/12/30 09:56:28;;;;;;;1.23;0.75;;;12.20;99.90;;;;;;4977065;28;20101;-77
2021/12/30 09:58:54;;;;;;;2.10;1.30;;;12.20;99.90;;;;;;4988656;28;20475;-78
2021/12/30 10:01:19;;;;;;;1.15;0.80;;;12.30;99.90;;;;;;4987618;28;20030;-76
2021/12/30 10:03:46;;;;;;;2.08;1.00;;;12.40;99.90;;;;;;4987405;28;20034;-76
2021/12/30 10:06:14;;;;;;;2.47;0.85;;;12.40;99.90;;;;;;4989236;28;20027;-76
2021/12/30 10:08:55;;;;;;;1.48;0.60;;;12.40;99.90;;;;;;4996268;28;20038;-76
2021/12/30 10:11:22;;;;;;;1.77;0.93;;;12.40;99.90;;;;;;4994147;28;20025;-77
2021/12/30 10:13:56;;;;;;;1.33;0.90;;;12.50;99.90;;;;;;4986394;28;20042;-76
2021/12/30 10:16:22;;;;;;;2.03;0.70;;;12.60;99.90;;;;;;4985844;28;20033;-78
2021/12/30 10:19:02;;;;;;;2.08;0.95;;;12.70;99.90;;;;;;4988546;28;20048;-76
2021/12/30 10:21:30;;;;;;;0.70;0.50;;;12.70;99.90;;;;;;4987327;28;20030;-76
2021/12/30 10:23:59;;;;;;;3.75;0.88;;;12.70;99.90;;;;;;4987291;28;20034;-78
2021/12/30 10:26:25;;;;;;;1.27;0.85;;;12.70;99.90;;;;;;4987521;28;20034;-77
2021/12/30 10:28:56;;;;;;;2.55;0.75;;;12.70;99.90;;;;;;4988643;28;20039;-76
2021/12/30 10:31:31;;;;;;;2.53;0.93;;;12.70;99.90;;;;;;4986479;28;20027;-76
2021/12/30 10:34:04;;;;;;;1.30;0.80;;;12.70;99.90;;;;;;4988586;28;20023;-77
2021/12/30 10:36:38;;;;;;;1.63;0.80;;;12.70;99.90;;;;;;4990319;28;20514;-77
2021/12/30 10:39:26;;;;;;;1.65;0.80;;;12.70;99.90;;;;;;4992480;28;20121;-78
2021/12/30 10:42:09;;;;;;;1.48;0.50;;;12.70;99.90;;;;;;4988590;28;20056;-76
2021/12/30 10:44:52;;;;;;;0.95;0.50;;;12.70;99.90;;;;;;4999899;28;20495;-77
2021/12/30 10:47:19;;;;;;;1.95;0.75;;;12.70;99.90;;;;;;4990021;28;20029;-75
2021/12/30 10:49:57;;;;;;;0.70;0.50;;;12.70;99.90;;;;;;4989985;28;20042;-77
2021/12/30 10:52:24;;;;;;;1.60;0.57;;;12.80;99.90;;;;;;4990305;28;20061;-76
2021/12/30 10:54:50;;;;;;;0.77;0.43;;;12.90;99.90;;;;;;4992074;28;20040;-78
2021/12/30 10:57:16;;;;;;;0.73;0.50;;;12.90;99.90;;;;;;5008037;28;20113;-78
2021/12/30 10:59:44;;;;;;;4.20;0.70;;;12.90;99.90;;;;;;5006093;28;20105;-78
2021/12/30 11:02:21;;;;;;;0.60;0.40;;;12.90;99.90;;;;;;4993381;28;20137;-78
2021/12/30 11:04:53;;;;;;;0.60;0.40;;;12.90;99.90;;;;;;5004946;28;20030;-77
2021/12/30 11:07:22;;;;;;;0.75;0.45;;;13.00;99.90;;;;;;4996152;28;20453;-78
2021/12/30 11:09:53;;;;;;;0.98;0.43;;;13.00;99.90;;;;;;4990684;28;21429;-75
2021/12/30 11:12:34;;;;;;;2.40;0.50;;;13.00;99.90;;;;;;4991333;28;20066;-70
2021/12/30 11:15:05;;;;;;;;;;;13.10;99.90;;;;;;4994442;28;20030;-74
2021/12/30 11:17:35;;;;;;;1.00;0.45;;;13.10;99.90;;;;;;4991504;28;19921;-76
2021/12/30 11:20:07;;;;;;;1.80;0.60;;;13.10;99.90;;;;;;4991480;28;20391;-76
2021/12/30 11:22:35;;;;;;;1.90;0.60;;;13.20;99.90;;;;;;4989196;28;20035;-77
2021/12/30 11:25:04;;;;;;;0.85;0.65;;;13.20;99.90;;;;;;4999583;28;20432;-76
2021/12/30 11:27:31;;;;;;;1.15;0.60;;;13.30;99.90;;;;;;5000553;28;20091;-76
2021/12/30 11:30:07;;;;;;;1.13;0.47;;;13.30;99.90;;;;;;4991320;28;20038;-76
2021/12/30 11:32:34;;;;;;;3.30;0.68;;;13.30;99.90;;;;;;4985224;28;20380;-76
2021/12/30 11:35:03;;;;;;;1.50;0.50;;;13.40;99.90;;;;;;4990730;28;20030;-74
2021/12/30 11:37:29;;;;;;;1.00;0.50;;;13.40;99.90;;;;;;4975488;28;20110;-75
2021/12/30 11:39:58;;;;;;;0.90;0.40;;;13.40;99.90;;;;;;4970755;28;20479;-74
2021/12/30 11:42:28;;;;;;;1.52;0.40;;;13.40;99.90;;;;;;4971189;28;20146;-76
2021/12/30 11:45:02;;;;;;;2.08;0.40;;;13.30;99.90;;;;;;4953890;28;20086;-74
2021/12/30 11:47:34;;;;;;;4.45;0.47;;;13.30;99.90;;;;;;4952924;28;20038;-75
2021/12/30 11:50:27;;;;;;;1.08;0.40;;;13.30;99.90;;;;;;4971313;28;20042;-74
2021/12/30 11:53:11;;;;;;;0.88;0.50;;;13.30;99.90;;;;;;4971413;28;20446;-74
2021/12/30 11:56:03;;;;;;;0.93;0.50;;;13.30;99.90;;;;;;4953077;28;20038;-74
2021/12/30 11:58:36;;;;;;;1.02;0.52;;;13.30;99.90;;;;;;4971068;28;20045;-74
2021/12/30 12:01:10;;;;;;;1.42;0.60;;;13.30;99.90;;;;;;4970861;28;20023;-73
2021/12/30 12:03:39;;;;;;;1.25;0.65;;;13.30;99.90;;;;;;4969863;28;20035;-74
2021/12/30 12:06:24;;;;;;;1.17;0.50;;;13.40;99.90;;;;;;4971116;28;20027;-73
2021/12/30 12:09:14;;;;;;;2.35;0.60;;;13.40;99.90;;;;;;4985573;28;20588;-74
2021/12/30 12:11:46;;;;;;;1.20;0.70;;;13.40;99.90;;;;;;4959705;28;20054;-74
2021/12/30 12:14:15;;;;;;;0.98;0.60;;;13.40;99.90;;;;;;4970943;28;20023;-74
2021/12/30 12:16:51;;;;;;;4.53;0.60;;;13.40;99.90;;;;;;4967337;28;20118;-74
2021/12/30 12:19:19;;;;;;;1.65;0.50;;;13.50;99.90;;;;;;4971365;28;20042;-74
2021/12/30 12:21:48;;;;;;;1.90;0.40;;;13.50;99.90;;;;;;4952342;28;20030;-74
2021/12/30 12:24:36;;;;;;;0.77;0.45;;;13.50;99.90;;;;;;4971373;28;20039;-73
2021/12/30 12:27:06;;;;;;;1.02;0.60;;;13.50;99.90;;;;;;4953143;28;20114;-74
2021/12/30 12:29:44;;;;;;;3.15;0.65;;;13.60;99.90;;;;;;4969996;28;20438;-74
2021/12/30 12:32:26;;;;;;;1.15;0.45;;;13.50;99.90;;;;;;4971020;28;20034;-73
2021/12/30 12:34:53;;;;;;;1.05;0.60;;;13.60;99.90;;;;;;4970440;28;20030;-73
2021/12/30 12:37:37;;;;;;;2.85;0.60;;;13.60;99.90;;;;;;4981744;28;20054;-74
2021/12/30 12:40:11;;;;;;;0.93;0.50;;;13.60;99.90;;;;;;4989478;28;20030;-74
2021/12/30 12:42:43;;;;;;;1.02;0.50;;;13.60;99.90;;;;;;4987840;28;20023;-73
2021/12/30 12:45:30;;;;;;;2.15;0.70;;;13.70;99.90;;;;;;4989875;28;20487;-73
2021/12/30 12:48:23;;;;;;;1.35;0.40;;;13.70;99.90;;;;;;4989838;28;20081;-73
2021/12/30 12:51:03;;;;;;;1.02;0.60;;;13.70;99.90;;;;;;4989032;28;20065;-74
2021/12/30 12:53:32;;;;;;;1.00;0.55;;;13.70;99.90;;;;;;4987739;28;20030;-75
2021/12/30 12:56:26;;;;;;;0.60;0.40;;;13.70;99.90;;;;;;5001846;28;20122;-74